Time;durP1;ratioP1;P1;durP2;ratioP2;P2;SDS_P1;SDS_P2;PMS_P1;PMS_P2;Temp;Humidity;BMP_temperature;BMP_pressure;BME280_temperature;BME280_humidity;BME280_pressure;Samples;Min_cycle;Max_cycle;Signal;HPM_P1;HPM_P2
2023/03/13 00:01:49;;;;;;;0.10;0.10;;;7.10;99.90;230.40;231737.00;;;;5045488;28;20680;-73
2023/03/13 00:04:18;;;;;;;0.10;0.10;;;7.20;99.90;230.40;231737.00;;;;5028878;28;20282;-72
2023/03/13 00:06:46;;;;;;;0.10;0.10;;;7.10;99.90;230.40;231737.00;;;;5038254;28;20206;-72
2023/03/13 00:09:16;;;;;;;0.10;0.10;;;7.10;99.90;230.40;231737.00;;;;5033500;28;20694;-72
2023/03/13 00:11:46;;;;;;;0.10;0.10;;;7.20;99.90;230.40;231737.00;;;;5046408;28;20752;-72
2023/03/13 00:14:14;;;;;;;0.10;0.10;;;7.10;99.90;230.40;231737.00;;;;5036118;28;20579;-72
2023/03/13 00:16:42;;;;;;;0.10;0.10;;;7.10;99.90;230.40;231737.00;;;;5037765;28;20192;-72
2023/03/13 00:19:10;;;;;;;0.10;0.10;;;7.10;99.90;230.40;231737.00;;;;5036960;28;20191;-72
2023/03/13 00:21:40;;;;;;;0.10;0.10;;;7.10;99.90;230.40;231737.00;;;;5032922;28;20195;-71
2023/03/13 00:24:11;;;;;;;0.10;0.10;;;7.10;99.90;230.40;231737.00;;;;5045484;28;20241;-72
2023/03/13 00:26:39;;;;;;;0.10;0.10;;;7.20;99.90;230.40;231737.00;;;;5034865;28;20247;-72
2023/03/13 00:29:07;;;;;;;0.10;0.10;;;7.20;99.90;230.40;231737.00;;;;5048356;28;21463;-72
2023/03/13 00:31:35;;;;;;;0.10;0.10;;;7.20;99.90;230.40;231737.00;;;;5036088;28;20241;-72
2023/03/13 00:34:04;;;;;;;0.10;0.10;;;7.20;99.90;230.40;231737.00;;;;5035815;28;20253;-73
2023/03/13 00:36:34;;;;;;;0.10;0.10;;;7.20;99.90;230.40;231737.00;;;;5035706;28;20219;-73
2023/03/13 00:39:06;;;;;;;0.10;0.10;;;7.20;99.90;230.40;231737.00;;;;5051009;28;20552;-72
2023/03/13 00:41:37;;;;;;;0.10;0.10;;;7.20;99.90;230.40;231737.00;;;;5035636;28;20650;-72
2023/03/13 00:44:05;;;;;;;0.10;0.10;;;7.20;99.90;230.40;231737.00;;;;5057996;28;20207;-72
2023/03/13 00:46:33;;;;;;;0.10;0.10;;;7.20;99.90;230.40;231737.00;;;;5040085;28;20619;-72
2023/03/13 00:49:01;;;;;;;0.10;0.10;;;7.20;99.90;230.40;231737.00;;;;5034654;28;20552;-72
2023/03/13 00:51:30;;;;;;;0.10;0.10;;;7.20;99.90;230.40;231737.00;;;;5052370;28;20199;-72
2023/03/13 00:53:59;;;;;;;0.10;0.10;;;7.20;99.90;230.40;231737.00;;;;5042605;28;20335;-72
2023/03/13 00:56:29;;;;;;;0.10;0.10;;;7.20;99.90;230.40;231737.00;;;;5085991;23;20221;-72
2023/03/13 00:58:59;;;;;;;0.10;0.10;;;7.20;99.90;230.40;231737.00;;;;5058086;28;20251;-72
2023/03/13 01:01:30;;;;;;;0.10;0.10;;;7.30;99.90;230.40;231737.00;;;;5072374;28;20186;-72
2023/03/13 01:04:01;;;;;;;0.10;0.10;;;7.30;99.90;230.40;231737.00;;;;5077446;28;20226;-71
2023/03/13 01:06:33;;;;;;;0.10;0.10;;;7.30;99.90;230.40;231737.00;;;;5065791;28;20224;-72
2023/03/13 01:09:02;;;;;;;0.10;0.10;;;7.40;99.90;230.40;231737.00;;;;5065834;28;20198;-72
2023/03/13 01:11:36;;;;;;;0.10;0.10;;;7.40;99.90;230.40;231737.00;;;;5068252;28;20190;-72
2023/03/13 01:14:07;;;;;;;0.10;0.10;;;7.40;99.90;230.40;231737.00;;;;5072547;28;20251;-71
2023/03/13 01:16:37;;;;;;;0.10;0.10;;;7.40;99.90;230.40;231737.00;;;;5063580;28;20265;-73
2023/03/13 01:19:09;;;;;;;0.10;0.10;;;7.40;99.90;230.40;231737.00;;;;5069237;28;20206;-72
2023/03/13 01:21:40;;;;;;;0.10;0.10;;;7.50;99.90;230.40;231737.00;;;;5073285;28;20216;-73
2023/03/13 01:24:09;;;;;;;0.10;0.10;;;7.40;99.90;230.40;231737.00;;;;5065659;28;20222;-72
2023/03/13 01:26:39;;;;;;;0.10;0.10;;;7.40;99.90;230.40;231737.00;;;;5060583;28;20218;-72
2023/03/13 01:29:07;;;;;;;0.10;0.10;;;7.50;99.90;230.40;231737.00;;;;5068280;28;21213;-72
2023/03/13 01:31:36;;;;;;;0.10;0.10;;;7.50;99.90;230.40;231737.00;;;;5064429;28;20224;-72
2023/03/13 01:34:08;;;;;;;0.10;0.10;;;7.50;99.90;230.40;231737.00;;;;5061022;28;20214;-71
2023/03/13 01:36:37;;;;;;;0.10;0.10;;;7.40;99.90;230.40;231737.00;;;;5070608;28;20229;-73
2023/03/13 01:39:06;;;;;;;0.10;0.10;;;7.40;99.90;230.40;231737.00;;;;5064840;28;20201;-72
2023/03/13 01:41:34;;;;;;;0.10;0.10;;;7.50;99.90;230.40;231737.00;;;;5065692;28;20297;-71
2023/03/13 01:44:03;;;;;;;0.10;0.10;;;7.50;99.90;230.40;231737.00;;;;5061413;28;20223;-71
2023/03/13 01:46:35;;;;;;;0.10;0.10;;;7.40;99.90;230.40;231737.00;;;;5081798;28;20228;-72
2023/03/13 01:49:14;;;;;;;0.10;0.10;;;7.40;99.90;230.40;231737.00;;;;5059454;28;20193;-72
2023/03/13 01:52:10;;;;;;;0.10;0.10;;;7.40;99.90;230.40;231737.00;;;;5059568;28;20263;-72
2023/03/13 01:54:58;;;;;;;0.10;0.10;;;7.40;99.90;230.40;231737.00;;;;5067327;28;20221;-72
2023/03/13 01:57:32;;;;;;;0.10;0.10;;;7.40;99.90;230.40;231737.00;;;;5083417;28;20247;-72
2023/03/13 02:00:08;;;;;;;0.10;0.10;;;7.40;99.90;230.40;231737.00;;;;5080344;28;20202;-72
2023/03/13 02:02:46;;;;;;;0.10;0.10;;;7.40;99.90;230.40;231737.00;;;;5067007;28;20217;-73
2023/03/13 02:05:18;;;;;;;0.10;0.10;;;7.40;99.90;230.40;231737.00;;;;5069895;28;20216;-72
2023/03/13 02:07:52;;;;;;;0.10;0.10;;;7.40;99.90;230.40;231737.00;;;;5067689;28;20198;-73
2023/03/13 02:10:21;;;;;;;0.10;0.10;;;7.50;99.90;230.40;231737.00;;;;5055441;28;20213;-72
2023/03/13 02:12:51;;;;;;;0.10;0.10;;;7.50;99.90;230.40;231737.00;;;;5057913;28;20684;-73
2023/03/13 02:15:24;;;;;;;0.10;0.10;;;7.50;99.90;230.40;231737.00;;;;5069516;28;20476;-73
2023/03/13 02:17:53;;;;;;;0.10;0.10;;;7.60;99.90;230.40;231737.00;;;;5079694;28;20197;-72
2023/03/13 02:20:22;;;;;;;0.10;0.10;;;7.60;99.90;230.40;231737.00;;;;5072357;28;20271;-73
2023/03/13 02:23:01;;;;;;;0.10;0.10;;;7.70;99.90;230.40;231737.00;;;;5059456;28;20331;-72
2023/03/13 02:25:41;;;;;;;0.10;0.10;;;7.70;99.90;230.40;231737.00;;;;5059720;28;20632;-73
2023/03/13 02:28:15;;;;;;;0.10;0.10;;;7.70;99.90;230.40;231737.00;;;;5069815;28;20200;-72
2023/03/13 02:30:45;;;;;;;0.10;0.10;;;7.70;99.90;230.40;231737.00;;;;5064270;28;20323;-71
2023/03/13 02:33:15;;;;;;;0.10;0.10;;;7.70;99.90;230.40;231737.00;;;;5070949;28;20189;-72
2023/03/13 02:35:45;;;;;;;0.10;0.10;;;7.70;99.90;230.40;231737.00;;;;5066453;28;20638;-72
2023/03/13 02:38:23;;;;;;;0.10;0.10;;;7.70;99.90;230.40;231737.00;;;;5063189;28;20286;-72
2023/03/13 02:40:55;;;;;;;0.10;0.10;;;7.70;99.90;230.40;231737.00;;;;5077719;28;20216;-72
2023/03/13 02:43:29;;;;;;;0.10;0.10;;;7.70;99.90;230.40;231737.00;;;;5079917;28;20240;-72
2023/03/13 02:46:04;;;;;;;0.10;0.10;;;7.80;99.90;230.40;231737.00;;;;5067529;28;20218;-72
2023/03/13 02:48:37;;;;;;;0.10;0.10;;;7.90;99.90;230.40;231737.00;;;;5057852;28;20201;-72
2023/03/13 02:51:13;;;;;;;0.10;0.10;;;7.90;99.90;230.40;231737.00;;;;5064320;28;20194;-72
2023/03/13 02:53:43;;;;;;;0.10;0.10;;;7.90;99.90;230.40;231737.00;;;;5069420;28;20608;-71
2023/03/13 02:56:15;;;;;;;0.10;0.10;;;7.90;99.90;230.40;231737.00;;;;5063875;28;20700;-71
2023/03/13 02:58:44;;;;;;;0.10;0.10;;;8.00;99.90;230.40;231737.00;;;;5066811;28;20202;-71
2023/03/13 03:01:20;;;;;;;0.10;0.10;;;8.00;99.90;230.40;231737.00;;;;5054883;28;20243;-71
2023/03/13 03:03:48;;;;;;;0.10;0.10;;;8.00;99.90;230.40;231737.00;;;;5079458;28;20260;-71
2023/03/13 03:06:17;;;;;;;0.10;0.10;;;8.00;99.90;230.40;231737.00;;;;5075530;28;20221;-71
2023/03/13 03:08:45;;;;;;;0.10;0.10;;;8.00;99.90;230.40;231737.00;;;;5068300;28;20486;-72
2023/03/13 03:11:15;;;;;;;0.10;0.10;;;8.10;99.90;230.40;231737.00;;;;5067294;28;20190;-72
2023/03/13 03:13:46;;;;;;;0.10;0.10;;;8.10;99.90;230.40;231737.00;;;;5056193;28;20252;-72
2023/03/13 03:16:17;;;;;;;0.10;0.10;;;8.10;99.90;230.40;231737.00;;;;5074756;28;20210;-72
2023/03/13 03:18:45;;;;;;;0.10;0.10;;;8.10;99.90;230.40;231737.00;;;;5070400;28;20276;-71
2023/03/13 03:21:13;;;;;;;0.10;0.10;;;8.00;99.90;230.40;231737.00;;;;5053763;28;20710;-71
2023/03/13 03:23:41;;;;;;;0.10;0.10;;;8.00;99.90;230.40;231737.00;;;;5067179;28;20608;-71
2023/03/13 03:26:10;;;;;;;0.10;0.10;;;8.10;99.90;230.40;231737.00;;;;5066791;28;20267;-70
2023/03/13 03:28:40;;;;;;;0.05;0.05;;;8.00;99.90;230.40;231737.00;;;;5080833;28;20232;-70
2023/03/13 03:31:14;;;;;;;0.10;0.10;;;8.00;99.90;230.40;231737.00;;;;5062662;28;20744;-70
2023/03/13 03:33:44;;;;;;;0.10;0.10;;;8.10;99.90;230.40;231737.00;;;;5082725;28;20229;-71
2023/03/13 03:36:17;;;;;;;0.10;0.10;;;8.00;99.90;230.40;231737.00;;;;5079438;28;20209;-70
2023/03/13 03:38:47;;;;;;;0.10;0.10;;;8.10;99.90;230.40;231737.00;;;;5064779;28;20596;-70
2023/03/13 03:41:19;;;;;;;0.10;0.10;;;8.00;99.90;230.40;231737.00;;;;5070428;28;20664;-72
2023/03/13 03:43:49;;;;;;;0.10;0.10;;;8.00;99.90;230.40;231737.00;;;;5072462;28;20214;-71
2023/03/13 03:46:20;;;;;;;0.10;0.10;;;8.10;99.90;230.40;231737.00;;;;5070943;28;20214;-71
2023/03/13 03:48:48;;;;;;;0.10;0.10;;;8.10;99.90;230.40;231737.00;;;;5078823;28;20208;-71
2023/03/13 03:51:16;;;;;;;0.10;0.10;;;8.10;99.90;230.40;231737.00;;;;5066943;28;20216;-70
2023/03/13 03:53:46;;;;;;;0.10;0.10;;;8.10;99.90;230.40;231737.00;;;;5074258;28;20213;-71
2023/03/13 03:56:15;;;;;;;0.10;0.10;;;8.10;99.90;230.40;231737.00;;;;5065880;28;20221;-70
2023/03/13 03:58:50;;;;;;;0.10;0.10;;;8.10;99.90;230.40;231737.00;;;;5067809;28;20215;-71
2023/03/13 04:01:38;;;;;;;0.08;0.08;;;8.20;99.90;230.40;231737.00;;;;5078619;28;20267;-70
2023/03/13 04:04:06;;;;;;;0.10;0.10;;;8.20;99.90;230.40;231737.00;;;;5086866;28;20232;-70
2023/03/13 04:06:35;;;;;;;0.10;0.10;;;8.20;99.90;230.40;231737.00;;;;5085239;28;20644;-71
2023/03/13 04:09:05;;;;;;;0.10;0.10;;;8.20;99.90;230.40;231737.00;;;;5072496;28;20196;-70
2023/03/13 04:11:35;;;;;;;0.10;0.10;;;8.20;99.90;230.40;231737.00;;;;5069504;28;20726;-70
2023/03/13 04:14:07;;;;;;;0.10;0.10;;;8.30;99.90;230.40;231737.00;;;;5068357;28;20236;-70
2023/03/13 04:16:35;;;;;;;0.10;0.10;;;8.40;99.90;230.40;231737.00;;;;5066156;28;20719;-71
2023/03/13 04:19:04;;;;;;;0.10;0.10;;;8.40;99.90;230.40;231737.00;;;;5063918;28;20574;-70
2023/03/13 04:21:33;;;;;;;0.10;0.10;;;8.40;99.90;230.40;231737.00;;;;5068453;28;20194;-71
2023/03/13 04:24:08;;;;;;;0.10;0.10;;;8.40;99.90;230.40;231737.00;;;;5074993;28;20221;-70
2023/03/13 04:26:39;;;;;;;0.10;0.10;;;8.40;99.90;230.40;231737.00;;;;5067413;28;20263;-70
2023/03/13 04:29:08;;;;;;;0.10;0.10;;;8.40;99.90;230.40;231737.00;;;;5076493;28;20209;-73
2023/03/13 04:31:47;;;;;;;0.10;0.10;;;8.40;99.90;230.40;231737.00;;;;5066247;28;20240;-76
2023/03/13 04:34:33;;;;;;;0.10;0.10;;;8.40;99.90;230.40;231737.00;;;;5062843;28;20206;-71
2023/03/13 04:37:17;;;;;;;0.10;0.10;;;8.40;99.90;230.40;231737.00;;;;5069658;28;20272;-72
2023/03/13 04:40:14;;;;;;;0.10;0.10;;;8.40;99.90;230.40;231737.00;;;;5052894;28;20206;-70
2023/03/13 04:42:55;;;;;;;0.10;0.10;;;8.40;99.90;230.40;231737.00;;;;5062555;28;20292;-72
2023/03/13 04:45:46;;;;;;;0.10;0.10;;;8.40;99.90;230.40;231737.00;;;;5064603;28;20596;-71
2023/03/13 04:48:43;;;;;;;0.10;0.10;;;8.40;99.90;230.40;231737.00;;;;5066845;28;20728;-71
2023/03/13 04:51:26;;;;;;;0.10;0.10;;;8.50;99.90;230.40;231737.00;;;;5059808;28;20198;-71
2023/03/13 04:54:14;;;;;;;0.10;0.10;;;8.50;99.90;230.40;231737.00;;;;5066560;28;20260;-72
2023/03/13 04:56:42;;;;;;;0.10;0.10;;;8.60;99.90;230.40;231737.00;;;;5066818;28;20271;-72
2023/03/13 04:59:31;;;;;;;0.10;0.10;;;8.60;99.90;230.40;231737.00;;;;5081233;28;20627;-70
2023/03/13 05:02:24;;;;;;;0.10;0.10;;;8.70;99.90;230.40;231737.00;;;;5068690;28;20211;-71
2023/03/13 05:05:10;;;;;;;0.10;0.10;;;8.70;99.90;230.40;231737.00;;;;5062391;28;20276;-70
2023/03/13 05:08:02;;;;;;;0.10;0.10;;;8.70;99.90;230.40;231737.00;;;;5067624;28;20202;-71
2023/03/13 05:10:37;;;;;;;0.10;0.10;;;8.80;99.90;230.40;231737.00;;;;5086630;28;20236;-73
2023/03/13 05:13:16;;;;;;;0.10;0.10;;;8.80;99.90;230.40;231737.00;;;;5066317;28;20313;-70
2023/03/13 05:15:58;;;;;;;0.10;0.10;;;8.80;99.90;230.40;231737.00;;;;5060707;28;20218;-71
2023/03/13 05:18:55;;;;;;;0.10;0.10;;;8.90;99.90;230.40;231737.00;;;;5070118;28;20735;-70
2023/03/13 05:21:46;;;;;;;0.10;0.10;;;9.00;99.90;230.40;231737.00;;;;5081858;28;20669;-70
2023/03/13 05:24:32;;;;;;;0.10;0.10;;;9.00;99.90;230.40;231737.00;;;;5065023;28;20347;-70
2023/03/13 05:27:19;;;;;;;0.10;0.10;;;9.10;99.90;230.40;231737.00;;;;5063742;28;20287;-71
2023/03/13 05:29:59;;;;;;;0.10;0.10;;;9.10;99.90;230.40;231737.00;;;;5069239;28;20271;-71
2023/03/13 05:32:46;;;;;;;0.10;0.10;;;9.00;99.90;230.40;231737.00;;;;5066862;28;20668;-72
2023/03/13 05:35:45;;;;;;;0.10;0.10;;;9.00;99.90;230.40;231737.00;;;;5066571;28;20217;-73
2023/03/13 05:38:25;;;;;;;0.10;0.10;;;9.10;99.90;230.40;231737.00;;;;5080978;28;20205;-73
2023/03/13 05:41:12;;;;;;;0.10;0.10;;;9.10;99.90;230.40;231737.00;;;;5069749;28;20684;-74
2023/03/13 05:43:58;;;;;;;0.10;0.10;;;9.10;99.90;230.40;231737.00;;;;5079665;28;20259;-73
2023/03/13 05:46:55;;;;;;;0.10;0.10;;;9.20;99.90;230.40;231737.00;;;;5053371;28;20194;-72
2023/03/13 05:49:42;;;;;;;0.10;0.10;;;9.20;99.90;230.40;231737.00;;;;5061808;28;20205;-74
2023/03/13 05:52:33;;;;;;;0.10;0.10;;;9.20;99.90;230.40;231737.00;;;;5063987;28;20205;-73
2023/03/13 05:55:19;;;;;;;0.10;0.10;;;9.20;99.90;230.40;231737.00;;;;5057808;28;20314;-70
2023/03/13 05:58:06;;;;;;;0.10;0.10;;;9.20;99.90;230.40;231737.00;;;;5056595;28;20263;-70
2023/03/13 06:01:05;;;;;;;0.10;0.10;;;9.10;99.90;230.40;231737.00;;;;5042064;28;20348;-70
2023/03/13 06:03:45;;;;;;;0.10;0.10;;;9.10;99.90;230.40;231737.00;;;;5066806;28;20765;-74
2023/03/13 06:06:24;;;;;;;0.10;0.10;;;9.10;99.90;230.40;231737.00;;;;5083589;28;20351;-71
2023/03/13 06:08:57;;;;;;;0.10;0.10;;;9.00;99.90;230.40;231737.00;;;;5063724;28;20661;-73
2023/03/13 06:11:28;;;;;;;0.10;0.10;;;9.00;99.90;230.40;231737.00;;;;5060708;28;20217;-71
2023/03/13 06:13:56;;;;;;;0.10;0.10;;;9.00;99.90;230.40;231737.00;;;;5076772;28;20236;-70
2023/03/13 06:16:43;;;;;;;0.10;0.10;;;8.90;99.90;230.40;231737.00;;;;5058046;28;20597;-71
2023/03/13 06:19:15;;;;;;;0.10;0.10;;;8.90;99.90;230.40;231737.00;;;;5069197;28;20193;-70
2023/03/13 06:21:43;;;;;;;0.10;0.10;;;8.90;99.90;230.40;231737.00;;;;5066264;28;20198;-72
2023/03/13 06:24:12;;;;;;;0.10;0.10;;;8.90;99.90;230.40;231737.00;;;;5055879;28;20657;-71
2023/03/13 06:26:40;;;;;;;0.10;0.10;;;8.90;99.90;230.40;231737.00;;;;5061282;28;20226;-71
2023/03/13 06:29:09;;;;;;;0.10;0.10;;;8.90;99.90;230.40;231737.00;;;;5071546;28;20657;-72
2023/03/13 06:31:37;;;;;;;0.10;0.10;;;8.90;99.90;230.40;231737.00;;;;5071185;28;20255;-71
2023/03/13 06:34:06;;;;;;;0.10;0.10;;;8.90;99.90;230.40;231737.00;;;;5062643;28;20197;-72
2023/03/13 06:36:34;;;;;;;0.10;0.10;;;8.90;99.90;230.40;231737.00;;;;5059292;28;20777;-72
2023/03/13 06:39:02;;;;;;;0.10;0.10;;;8.90;99.90;230.40;231737.00;;;;5068730;28;20686;-72
2023/03/13 06:41:31;;;;;;;0.10;0.10;;;8.90;99.90;230.40;231737.00;;;;5064204;28;20259;-72
2023/03/13 06:43:59;;;;;;;0.10;0.10;;;8.90;99.90;230.40;231737.00;;;;5063462;28;20733;-72
2023/03/13 06:46:27;;;;;;;0.10;0.10;;;8.90;99.90;230.40;231737.00;;;;5066895;28;20274;-72
2023/03/13 06:48:55;;;;;;;0.10;0.10;;;8.90;99.90;230.40;231737.00;;;;5079424;28;20737;-72
2023/03/13 06:51:25;;;;;;;0.10;0.10;;;9.10;99.90;230.40;231737.00;;;;5063889;28;20247;-71
2023/03/13 06:53:53;;;;;;;0.10;0.10;;;9.10;99.90;230.40;231737.00;;;;5071148;28;20205;-71
2023/03/13 06:56:21;;;;;;;0.10;0.10;;;9.20;99.90;230.40;231737.00;;;;5078908;22;20230;-74
2023/03/13 06:58:50;;;;;;;0.10;0.10;;;9.20;99.90;230.40;231737.00;;;;5061221;28;20675;-73
2023/03/13 07:01:18;;;;;;;0.10;0.10;;;9.20;99.90;230.40;231737.00;;;;5052655;28;20589;-74
2023/03/13 07:03:47;;;;;;;0.10;0.10;;;9.20;99.90;230.40;231737.00;;;;5056388;28;20209;-74
2023/03/13 07:06:17;;;;;;;0.10;0.10;;;9.20;99.90;230.40;231737.00;;;;5048130;28;20650;-74
2023/03/13 07:08:46;;;;;;;0.10;0.10;;;9.20;99.90;230.40;231737.00;;;;5055120;28;20241;-74
2023/03/13 07:11:15;;;;;;;0.10;0.10;;;9.10;99.90;230.40;231737.00;;;;5033854;28;20424;-73
2023/03/13 07:13:43;;;;;;;0.10;0.10;;;9.10;99.90;230.40;231737.00;;;;5052660;28;20615;-73
2023/03/13 07:16:13;;;;;;;0.10;0.10;;;9.10;99.90;230.40;231737.00;;;;5054628;28;20261;-73
2023/03/13 07:18:43;;;;;;;0.10;0.10;;;9.10;99.90;230.40;231737.00;;;;5029506;28;20306;-74
2023/03/13 07:21:12;;;;;;;0.10;0.10;;;9.10;99.90;230.40;231737.00;;;;5052851;28;20198;-74
2023/03/13 07:23:40;;;;;;;0.10;0.10;;;9.10;99.90;230.40;231737.00;;;;5051152;28;20198;-74
2023/03/13 07:26:13;;;;;;;0.10;0.10;;;9.10;99.90;230.40;231737.00;;;;5054174;28;20226;-74
2023/03/13 07:28:42;;;;;;;0.10;0.10;;;9.00;99.90;230.40;231737.00;;;;5054137;28;20661;-73
2023/03/13 07:31:15;;;;;;;0.10;0.10;;;9.10;99.90;230.40;231737.00;;;;5053740;28;20669;-74
2023/03/13 07:33:44;;;;;;;0.10;0.10;;;9.10;99.90;230.40;231737.00;;;;5054643;28;20273;-74
2023/03/13 07:36:15;;;;;;;0.10;0.10;;;9.10;99.90;230.40;231737.00;;;;5054402;28;20218;-73
2023/03/13 07:38:47;;;;;;;0.10;0.10;;;9.10;99.90;230.40;231737.00;;;;5052980;28;20260;-73
2023/03/13 07:41:15;;;;;;;0.10;0.10;;;9.10;99.90;230.40;231737.00;;;;5047075;28;20198;-73
2023/03/13 07:43:44;;;;;;;0.10;0.10;;;9.20;99.90;230.40;231737.00;;;;5054106;28;20308;-74
2023/03/13 07:46:17;;;;;;;0.10;0.10;;;9.20;99.90;230.40;231737.00;;;;5053897;28;20249;-75
2023/03/13 07:48:46;;;;;;;0.10;0.10;;;9.20;99.90;230.40;231737.00;;;;5054890;28;20296;-75
2023/03/13 07:51:17;;;;;;;0.10;0.10;;;9.20;99.90;230.40;231737.00;;;;5056716;28;20263;-73
2023/03/13 07:53:46;;;;;;;0.10;0.10;;;9.30;99.90;230.40;231737.00;;;;5031516;28;20659;-74
2023/03/13 07:56:17;;;;;;;0.10;0.10;;;9.30;99.90;230.40;231737.00;;;;5056939;28;20237;-73
2023/03/13 07:58:45;;;;;;;0.10;0.10;;;9.30;99.90;230.40;231737.00;;;;5036727;28;20695;-73
2023/03/13 08:01:18;;;;;;;0.10;0.10;;;9.40;99.90;230.40;231737.00;;;;5049061;28;20195;-73
2023/03/13 08:03:49;;;;;;;0.10;0.10;;;9.40;99.90;230.40;231737.00;;;;5050316;28;20197;-73
2023/03/13 08:06:20;;;;;;;0.10;0.10;;;9.40;99.90;230.40;231737.00;;;;5047135;28;20210;-73
2023/03/13 08:08:48;;;;;;;0.10;0.10;;;9.50;99.90;230.40;231737.00;;;;5053225;28;20206;-73
2023/03/13 08:11:19;;;;;;;0.10;0.10;;;9.50;99.90;230.40;231737.00;;;;5053961;28;20202;-74
2023/03/13 08:13:48;;;;;;;0.10;0.10;;;9.60;99.90;230.40;231737.00;;;;5053553;28;20282;-74
2023/03/13 08:16:20;;;;;;;0.10;0.10;;;9.50;99.90;230.40;231737.00;;;;5053249;28;20628;-73
2023/03/13 08:18:50;;;;;;;0.10;0.10;;;9.60;99.90;230.40;231737.00;;;;5053520;28;20194;-74
2023/03/13 08:21:21;;;;;;;0.10;0.10;;;9.60;99.90;230.40;231737.00;;;;5053891;28;20213;-73
2023/03/13 08:23:53;;;;;;;0.10;0.10;;;9.60;99.90;230.40;231737.00;;;;5053259;28;20198;-74
2023/03/13 08:26:24;;;;;;;0.10;0.10;;;9.60;99.90;230.40;231737.00;;;;5053345;28;20677;-73
2023/03/13 08:28:55;;;;;;;0.10;0.10;;;9.50;99.90;230.40;231737.00;;;;5053430;28;20645;-73
2023/03/13 08:31:27;;;;;;;0.10;0.10;;;9.50;99.90;230.40;231737.00;;;;5054036;28;20213;-73
2023/03/13 08:33:55;;;;;;;0.10;0.10;;;9.50;99.90;230.40;231737.00;;;;5055124;28;20210;-73
2023/03/13 08:36:25;;;;;;;0.10;0.10;;;9.50;99.90;230.40;231737.00;;;;5056201;28;20586;-73
2023/03/13 08:38:57;;;;;;;0.10;0.10;;;9.50;99.90;230.40;231737.00;;;;5056256;28;20530;-74
2023/03/13 08:41:28;;;;;;;0.10;0.10;;;9.50;99.90;230.40;231737.00;;;;5036507;28;20677;-73
2023/03/13 08:43:57;;;;;;;0.10;0.10;;;9.60;99.90;230.40;231737.00;;;;5055255;28;20190;-74
2023/03/13 08:46:30;;;;;;;0.10;0.10;;;9.60;99.90;230.40;231737.00;;;;5054642;28;20222;-73
2023/03/13 08:48:58;;;;;;;0.10;0.10;;;9.60;99.90;230.40;231737.00;;;;5056235;28;20256;-73
2023/03/13 08:51:28;;;;;;;0.10;0.10;;;9.60;99.90;230.40;231737.00;;;;5054475;28;20190;-73
2023/03/13 08:53:57;;;;;;;0.10;0.10;;;9.60;99.90;230.40;231737.00;;;;5053488;28;20610;-73
2023/03/13 08:56:29;;;;;;;0.10;0.10;;;9.60;99.90;230.40;231737.00;;;;5052431;28;20241;-73
2023/03/13 08:58:59;;;;;;;0.10;0.10;;;9.70;99.90;230.40;231737.00;;;;5053180;28;20213;-73
2023/03/13 09:01:32;;;;;;;0.10;0.10;;;9.70;99.90;230.40;231737.00;;;;5052719;28;20195;-72
2023/03/13 09:04:00;;;;;;;0.10;0.10;;;9.80;99.90;230.40;231737.00;;;;5053149;28;20207;-74
2023/03/13 09:06:32;;;;;;;0.10;0.10;;;9.80;99.90;230.40;231737.00;;;;5052234;28;20588;-74
2023/03/13 09:09:00;;;;;;;0.10;0.10;;;9.80;99.90;230.40;231737.00;;;;5052367;28;20625;-74
2023/03/13 09:11:29;;;;;;;0.10;0.10;;;9.90;99.90;230.40;231737.00;;;;5052640;28;20248;-73
2023/03/13 09:13:58;;;;;;;0.10;0.10;;;9.90;99.90;230.40;231737.00;;;;5050539;28;20198;-74
2023/03/13 09:16:30;;;;;;;0.10;0.10;;;9.90;99.90;230.40;231737.00;;;;5052334;28;20221;-74
2023/03/13 09:19:00;;;;;;;0.10;0.10;;;10.00;99.90;230.40;231737.00;;;;5051400;28;20202;-74
2023/03/13 09:21:30;;;;;;;0.10;0.10;;;10.00;99.90;230.40;231737.00;;;;5051106;28;20206;-74
2023/03/13 09:23:59;;;;;;;0.10;0.10;;;10.10;99.90;230.40;231737.00;;;;5053387;28;20556;-73
2023/03/13 09:26:28;;;;;;;0.10;0.10;;;10.20;99.90;230.40;231737.00;;;;5054748;28;20221;-74
2023/03/13 09:28:57;;;;;;;0.10;0.10;;;10.20;99.90;230.40;231737.00;;;;5029614;28;20190;-73
2023/03/13 09:31:30;;;;;;;0.10;0.10;;;10.30;99.90;230.40;231737.00;;;;5052632;28;20205;-73
2023/03/13 09:33:58;;;;;;;0.10;0.10;;;10.30;99.90;230.40;231737.00;;;;5033513;28;20207;-74
2023/03/13 09:36:27;;;;;;;0.10;0.10;;;10.30;99.90;230.40;231737.00;;;;5049853;28;20214;-73
2023/03/13 09:38:58;;;;;;;0.10;0.10;;;10.30;99.90;230.40;231737.00;;;;5048480;28;20217;-73
2023/03/13 09:41:34;;;;;;;0.10;0.10;;;10.30;99.90;230.40;231737.00;;;;5051822;28;20199;-73
2023/03/13 09:44:11;;;;;;;0.10;0.10;;;10.40;99.90;230.40;231737.00;;;;5051916;28;20202;-73
2023/03/13 09:46:49;;;;;;;0.10;0.10;;;10.40;99.90;230.40;231737.00;;;;5051808;28;20692;-73
2023/03/13 09:49:31;;;;;;;0.10;0.10;;;10.50;99.90;230.40;231737.00;;;;5049213;28;20264;-74
2023/03/13 09:52:13;;;;;;;0.10;0.10;;;10.50;99.90;230.40;231737.00;;;;5051807;28;20209;-73
2023/03/13 09:54:48;;;;;;;0.10;0.10;;;10.50;99.90;230.40;231737.00;;;;5051554;28;20206;-74
2023/03/13 09:57:25;;;;;;;0.10;0.10;;;10.60;99.90;230.40;231737.00;;;;5044043;28;20214;-73
2023/03/13 09:59:58;;;;;;;0.10;0.10;;;10.70;99.90;230.40;231737.00;;;;5051490;28;20205;-74
2023/03/13 10:02:34;;;;;;;0.10;0.10;;;10.70;99.90;230.40;231737.00;;;;5051338;28;20608;-74
2023/03/13 10:05:13;;;;;;;0.10;0.10;;;10.80;99.90;230.40;231737.00;;;;5051235;28;20190;-73
2023/03/13 10:07:41;;;;;;;0.10;0.10;;;10.80;99.90;230.40;231737.00;;;;5051753;28;20214;-73
2023/03/13 10:10:16;;;;;;;0.10;0.10;;;10.90;99.90;230.40;231737.00;;;;5051696;28;20240;-73
2023/03/13 10:12:48;;;;;;;0.05;0.05;;;10.90;99.90;230.40;231737.00;;;;5051596;28;20284;-74
2023/03/13 10:15:37;;;;;;;0.00;0.00;;;11.00;99.90;230.40;231737.00;;;;5048650;28;20248;-73
2023/03/13 10:18:18;;;;;;;0.10;0.10;;;11.00;99.90;230.40;231737.00;;;;5052135;28;20292;-73
2023/03/13 10:20:50;;;;;;;0.10;0.10;;;11.10;99.90;230.40;231737.00;;;;5048497;28;20212;-73
2023/03/13 10:23:27;;;;;;;0.10;0.10;;;11.10;99.90;230.40;231737.00;;;;5044075;28;20202;-73
2023/03/13 10:25:55;;;;;;;0.10;0.10;;;11.10;99.90;230.40;231737.00;;;;5049867;28;20217;-74
2023/03/13 10:28:25;;;;;;;0.10;0.10;;;11.10;99.90;230.40;231737.00;;;;5052657;28;20218;-73
2023/03/13 10:31:02;;;;;;;0.10;0.10;;;11.10;99.90;230.40;231737.00;;;;5054051;28;20706;-75
2023/03/13 10:33:36;;;;;;;0.10;0.10;;;11.10;99.90;230.40;231737.00;;;;5054230;28;20664;-73
2023/03/13 10:36:11;;;;;;;0.10;0.10;;;11.10;99.90;230.40;231737.00;;;;5045983;28;20577;-72
2023/03/13 10:38:51;;;;;;;0.10;0.10;;;11.10;99.90;230.40;231737.00;;;;5050740;28;20202;-74
2023/03/13 10:41:29;;;;;;;0.10;0.10;;;11.10;99.90;230.40;231737.00;;;;5044854;28;20198;-74
2023/03/13 10:44:03;;;;;;;0.10;0.10;;;11.10;99.90;230.40;231737.00;;;;5051406;28;20212;-73
2023/03/13 10:46:34;;;;;;;0.10;0.10;;;11.10;99.90;230.40;231737.00;;;;5032986;28;20238;-73
2023/03/13 10:49:15;;;;;;;0.10;0.10;;;11.10;99.90;230.40;231737.00;;;;5050958;28;20230;-74
2023/03/13 10:51:48;;;;;;;0.10;0.10;;;11.10;99.90;230.40;231737.00;;;;5051287;28;20637;-74
2023/03/13 10:54:24;;;;;;;0.10;0.10;;;11.10;99.90;230.40;231737.00;;;;5050720;28;20644;-73
2023/03/13 10:57:09;;;;;;;0.00;0.00;;;11.10;99.90;230.40;231737.00;;;;5051069;28;20230;-74
2023/03/13 10:59:44;;;;;;;0.10;0.10;;;11.20;99.90;230.40;231737.00;;;;5050718;28;20202;-73
2023/03/13 11:02:25;;;;;;;0.10;0.10;;;11.20;99.90;230.40;231737.00;;;;5051093;28;20546;-74
2023/03/13 11:04:55;;;;;;;0.10;0.10;;;11.30;99.90;230.40;231737.00;;;;5050566;28;20202;-74
2023/03/13 11:07:29;;;;;;;0.10;0.10;;;11.40;99.90;230.40;231737.00;;;;5052745;28;20203;-73
2023/03/13 11:10:00;;;;;;;0.10;0.10;;;11.40;99.90;230.40;231737.00;;;;5058536;28;20208;-74
2023/03/13 11:12:34;;;;;;;0.00;0.00;;;11.40;99.90;230.40;231737.00;;;;5033446;28;20203;-74